Time;durP1;ratioP1;P1;durP2;ratioP2;P2;SDS_P1;SDS_P2;PMS_P1;PMS_P2;Temp;Humidity;BMP_temperature;BMP_pressure;BME280_temperature;BME280_humidity;BME280_pressure;Samples;Min_cycle;Max_cycle;Signal;HPM_P1;HPM_P2
2021/07/07 00:01:35;;;;;;;3.40;2.93;;;16.40;99.90;;;;;;4992428;28;20189;-58
2021/07/07 00:04:01;;;;;;;6.03;2.93;;;16.40;99.90;;;;;;5010782;28;20173;-59
2021/07/07 00:06:26;;;;;;;3.43;2.90;;;16.30;99.90;;;;;;5008756;28;20645;-58
2021/07/07 00:08:52;;;;;;;9.33;3.40;;;16.40;99.90;;;;;;5006405;28;20177;-59
2021/07/07 00:11:18;;;;;;;4.80;3.70;;;16.40;99.90;;;;;;5008166;28;20267;-59
2021/07/07 00:13:44;;;;;;;13.30;4.27;;;16.40;99.90;;;;;;5010998;28;20188;-59
2021/07/07 00:16:10;;;;;;;5.27;3.30;;;16.40;99.90;;;;;;5009795;28;20169;-58
2021/07/07 00:18:36;;;;;;;5.80;3.60;;;16.40;99.90;;;;;;5007854;28;20512;-60
2021/07/07 00:21:02;;;;;;;6.57;3.93;;;16.40;99.90;;;;;;5008524;28;20464;-59
2021/07/07 00:23:29;;;;;;;4.67;4.00;;;16.40;99.90;;;;;;5009739;28;20931;-59
2021/07/07 00:25:55;;;;;;;7.73;3.00;;;16.40;99.90;;;;;;5008692;28;20775;-59
2021/07/07 00:28:22;;;;;;;5.50;3.53;;;16.30;99.90;;;;;;5009819;28;20507;-58
2021/07/07 00:30:50;;;;;;;10.50;4.00;;;16.30;99.90;;;;;;5009939;28;20411;-60
2021/07/07 00:33:16;;;;;;;4.93;3.77;;;16.30;99.90;;;;;;5006831;28;20458;-59
2021/07/07 00:35:42;;;;;;;4.43;3.33;;;16.30;99.90;;;;;;5009428;28;20937;-58
2021/07/07 00:38:08;;;;;;;6.67;3.60;;;16.30;99.90;;;;;;5009121;28;21167;-58
2021/07/07 00:40:38;;;;;;;5.03;3.93;;;16.30;99.90;;;;;;5010459;28;20847;-57
2021/07/07 00:43:04;;;;;;;8.37;4.00;;;16.30;99.90;;;;;;5009838;28;20443;-57
2021/07/07 00:45:29;;;;;;;8.77;5.13;;;16.30;99.90;;;;;;5003323;28;20570;-59
2021/07/07 00:47:55;;;;;;;6.67;4.23;;;16.30;99.90;;;;;;5002740;28;20168;-61
2021/07/07 00:50:21;;;;;;;5.40;4.20;;;16.20;99.90;;;;;;5009665;28;20282;-59
2021/07/07 00:52:46;;;;;;;6.27;3.80;;;16.20;99.90;;;;;;5007304;28;20688;-57
2021/07/07 00:55:14;;;;;;;9.27;4.03;;;16.20;99.90;;;;;;5007175;28;20336;-58
2021/07/07 00:57:44;;;;;;;7.10;4.20;;;16.20;99.90;;;;;;5009276;28;20177;-58
2021/07/07 01:00:15;;;;;;;6.07;3.53;;;16.20;99.90;;;;;;5010356;28;20486;-56
2021/07/07 01:02:42;;;;;;;5.80;3.77;;;16.20;99.90;;;;;;5005149;28;20455;-58
2021/07/07 01:05:10;;;;;;;6.33;4.03;;;16.20;99.90;;;;;;5019993;28;20459;-58
2021/07/07 01:07:36;;;;;;;10.73;4.20;;;16.20;99.90;;;;;;5006588;28;20420;-58
2021/07/07 01:10:03;;;;;;;6.17;3.77;;;16.20;99.90;;;;;;5007202;28;20551;-58
2021/07/07 01:12:31;;;;;;;4.77;3.63;;;16.20;99.90;;;;;;5004734;28;20628;-58
2021/07/07 01:15:00;;;;;;;5.67;3.73;;;16.20;99.90;;;;;;4999040;28;20435;-58
2021/07/07 01:17:29;;;;;;;3.70;2.73;;;16.20;99.90;;;;;;5009488;28;20423;-60
2021/07/07 01:19:55;;;;;;;5.17;3.37;;;16.10;99.90;;;;;;5005292;28;20470;-59
2021/07/07 01:22:21;;;;;;;6.97;3.57;;;16.10;99.90;;;;;;5009716;28;20812;-58
2021/07/07 01:24:47;;;;;;;3.77;3.00;;;16.10;99.90;;;;;;5009322;28;20420;-58
2021/07/07 01:27:13;;;;;;;5.10;2.83;;;16.10;99.90;;;;;;5007099;28;20195;-58
2021/07/07 01:29:38;;;;;;;5.00;2.90;;;16.10;99.90;;;;;;5001174;28;20210;-59
2021/07/07 01:32:04;;;;;;;3.10;2.80;;;16.10;99.90;;;;;;5004921;28;20656;-59
2021/07/07 01:34:30;;;;;;;5.07;3.20;;;16.10;99.90;;;;;;4996894;28;20179;-58
2021/07/07 01:36:56;;;;;;;4.10;2.87;;;16.10;99.90;;;;;;5002302;28;20690;-59
2021/07/07 01:39:21;;;;;;;6.30;3.30;;;16.10;99.90;;;;;;5009364;28;20165;-59
2021/07/07 01:41:47;;;;;;;10.53;3.47;;;16.10;99.90;;;;;;5009651;28;20188;-60
2021/07/07 01:44:13;;;;;;;4.17;3.10;;;16.10;99.90;;;;;;5005161;28;20383;-59
2021/07/07 01:46:38;;;;;;;4.40;3.50;;;16.10;99.90;;;;;;5007458;28;20768;-58
2021/07/07 01:49:04;;;;;;;9.33;3.53;;;16.10;99.90;;;;;;4996906;28;20236;-59
2021/07/07 01:51:30;;;;;;;4.03;2.60;;;16.10;99.90;;;;;;4994089;28;20238;-58
2021/07/07 01:53:55;;;;;;;6.10;3.00;;;16.10;99.90;;;;;;5005572;28;20522;-59
2021/07/07 01:56:21;;;;;;;3.80;2.70;;;16.10;99.90;;;;;;5006185;28;20257;-58
2021/07/07 01:58:47;;;;;;;6.17;3.50;;;16.10;99.90;;;;;;5008649;28;20172;-58
2021/07/07 02:01:13;;;;;;;4.47;2.50;;;16.10;99.90;;;;;;5007553;28;20789;-58
2021/07/07 02:03:38;;;;;;;5.13;3.13;;;16.10;99.90;;;;;;5005339;28;20417;-59
2021/07/07 02:06:04;;;;;;;9.07;3.07;;;16.10;99.90;;;;;;5009101;28;20183;-60
2021/07/07 02:08:29;;;;;;;3.63;2.53;;;16.10;99.90;;;;;;5007494;28;20531;-58
2021/07/07 02:10:55;;;;;;;4.10;2.77;;;16.10;99.90;;;;;;5005735;28;20184;-58
2021/07/07 02:13:22;;;;;;;4.60;3.10;;;16.10;99.90;;;;;;5006849;28;20559;-60
2021/07/07 02:15:47;;;;;;;6.70;3.07;;;16.10;99.90;;;;;;5001612;28;20238;-59
2021/07/07 02:18:13;;;;;;;5.67;2.83;;;16.10;99.90;;;;;;5004101;28;20518;-59
2021/07/07 02:20:41;;;;;;;7.20;3.60;;;16.10;99.90;;;;;;5007376;28;20207;-59
2021/07/07 02:23:09;;;;;;;4.30;2.83;;;16.10;99.90;;;;;;5008392;28;20196;-59
2021/07/07 02:25:36;;;;;;;4.50;2.83;;;16.10;99.90;;;;;;4992559;28;20692;-58
2021/07/07 02:28:05;;;;;;;3.30;3.00;;;16.10;99.90;;;;;;4989676;28;20503;-58
2021/07/07 02:30:34;;;;;;;2.70;2.50;;;16.10;99.90;;;;;;5004827;28;20427;-59
2021/07/07 02:33:02;;;;;;;6.40;3.07;;;16.10;99.90;;;;;;4995385;28;20476;-59
2021/07/07 02:35:31;;;;;;;9.23;3.10;;;16.10;99.90;;;;;;4999857;28;20506;-58
2021/07/07 02:37:57;;;;;;;2.87;1.87;;;16.10;99.90;;;;;;5008796;28;20928;-58
2021/07/07 02:40:25;;;;;;;3.30;1.83;;;16.10;99.90;;;;;;5006734;28;20651;-58
2021/07/07 02:42:51;;;;;;;2.73;1.60;;;16.10;99.90;;;;;;5008728;28;20479;-59
2021/07/07 02:45:17;;;;;;;3.07;1.77;;;16.10;99.90;;;;;;5007313;28;20457;-58
2021/07/07 02:47:44;;;;;;;2.30;1.73;;;16.00;99.90;;;;;;5008064;28;20427;-59
2021/07/07 02:50:13;;;;;;;1.97;1.80;;;16.00;99.90;;;;;;5002840;28;20462;-59
2021/07/07 02:52:40;;;;;;;3.80;1.87;;;16.00;99.90;;;;;;5008092;28;20517;-58
2021/07/07 02:55:10;;;;;;;2.27;1.90;;;16.00;99.90;;;;;;5008709;28;20554;-60
2021/07/07 03:00:21;;;;;;;3.53;2.30;;;16.00;99.90;;;;;;4999610;28;20462;-59
2021/07/07 03:02:47;;;;;;;8.60;2.50;;;16.10;99.90;;;;;;5011102;28;20798;-59
2021/07/07 03:05:12;;;;;;;4.77;2.30;;;16.10;99.90;;;;;;5012294;28;20494;-60
2021/07/07 03:07:38;;;;;;;2.93;1.90;;;16.10;99.90;;;;;;5010783;28;20675;-59
2021/07/07 03:10:08;;;;;;;3.40;2.00;;;16.10;99.90;;;;;;5011217;28;20173;-60
2021/07/07 03:12:34;;;;;;;3.00;2.30;;;16.10;99.90;;;;;;5012189;28;20447;-59
2021/07/07 03:14:59;;;;;;;2.70;2.03;;;16.10;99.90;;;;;;5009195;28;20834;-59
2021/07/07 03:17:25;;;;;;;6.20;2.27;;;16.10;99.90;;;;;;5003051;28;20188;-60
2021/07/07 03:19:51;;;;;;;2.10;1.70;;;16.00;99.90;;;;;;5011362;28;20575;-60
2021/07/07 03:22:17;;;;;;;4.27;2.40;;;16.10;99.90;;;;;;5012134;28;20356;-58
2021/07/07 03:24:43;;;;;;;6.53;2.20;;;16.00;99.90;;;;;;5003595;28;20177;-59
2021/07/07 03:27:09;;;;;;;2.17;1.97;;;16.10;99.90;;;;;;5012318;28;20808;-60
2021/07/07 03:29:34;;;;;;;3.23;1.90;;;16.10;99.90;;;;;;5010691;28;20442;-58
2021/07/07 03:32:00;;;;;;;2.33;2.13;;;16.00;99.90;;;;;;5006347;28;20258;-59
2021/07/07 03:34:25;;;;;;;3.40;2.00;;;16.10;99.90;;;;;;5004354;28;20284;-61
2021/07/07 03:36:51;;;;;;;2.60;2.10;;;16.10;99.90;;;;;;5009933;28;20172;-59
2021/07/07 03:39:17;;;;;;;2.77;2.20;;;16.10;99.90;;;;;;5009694;28;20260;-58
2021/07/07 03:41:42;;;;;;;3.80;2.60;;;16.00;99.90;;;;;;5006270;28;20689;-60
2021/07/07 03:44:08;;;;;;;3.63;1.90;;;16.10;99.90;;;;;;5001596;28;20247;-60
2021/07/07 03:46:33;;;;;;;3.10;2.37;;;16.00;99.90;;;;;;5009278;28;20176;-59
2021/07/07 03:48:59;;;;;;;2.73;2.27;;;16.00;99.90;;;;;;5004150;28;20176;-59
2021/07/07 03:51:25;;;;;;;3.43;2.20;;;16.00;99.90;;;;;;5008500;28;20177;-59
2021/07/07 03:53:50;;;;;;;3.90;1.87;;;16.10;99.90;;;;;;5007504;28;20804;-60
2021/07/07 03:56:16;;;;;;;5.20;2.77;;;16.00;99.90;;;;;;5011001;28;20222;-59
2021/07/07 03:58:41;;;;;;;4.37;2.80;;;16.00;99.90;;;;;;5008788;28;20185;-58
2021/07/07 04:01:07;;;;;;;3.03;2.73;;;16.10;99.90;;;;;;5007489;28;20261;-59
2021/07/07 04:03:33;;;;;;;2.70;2.33;;;16.10;99.90;;;;;;5006481;28;20192;-58
2021/07/07 04:05:58;;;;;;;3.20;2.40;;;16.10;99.90;;;;;;5002831;28;20236;-58
2021/07/07 04:08:24;;;;;;;5.77;2.67;;;16.10;99.90;;;;;;5006803;28;20661;-59
2021/07/07 04:10:49;;;;;;;2.70;2.50;;;16.10;99.90;;;;;;5008240;28;20191;-58
2021/07/07 04:13:15;;;;;;;2.73;2.13;;;16.10;99.90;;;;;;5007190;28;20962;-59
2021/07/07 04:15:41;;;;;;;4.80;2.63;;;16.10;99.90;;;;;;5010528;28;20200;-59
2021/07/07 04:18:09;;;;;;;4.27;2.47;;;16.10;99.90;;;;;;5009714;28;20272;-59
2021/07/07 04:20:35;;;;;;;3.50;2.23;;;16.10;99.90;;;;;;5002305;28;20204;-59
2021/07/07 04:23:00;;;;;;;2.67;2.47;;;16.10;99.90;;;;;;4995935;28;20519;-59
2021/07/07 04:25:26;;;;;;;2.03;1.90;;;16.10;99.90;;;;;;5009343;28;20419;-59
2021/07/07 04:27:52;;;;;;;2.60;1.80;;;16.10;99.90;;;;;;4997804;28;20177;-60
2021/07/07 04:30:18;;;;;;;5.83;1.83;;;16.10;99.90;;;;;;5010097;28;20191;-59
2021/07/07 04:32:47;;;;;;;1.97;1.87;;;16.10;99.90;;;;;;5002204;28;20231;-58
2021/07/07 04:35:16;;;;;;;2.50;1.90;;;16.10;99.90;;;;;;4999370;28;20428;-59
2021/07/07 04:37:42;;;;;;;2.40;2.17;;;16.10;99.90;;;;;;5000639;28;20427;-59
2021/07/07 04:40:11;;;;;;;2.50;2.30;;;16.10;99.90;;;;;;4998519;28;20471;-59
2021/07/07 04:42:37;;;;;;;2.90;1.87;;;16.10;99.90;;;;;;5003967;28;20451;-57
2021/07/07 04:45:05;;;;;;;1.80;1.70;;;16.20;99.90;;;;;;4997592;28;20458;-59
2021/07/07 04:47:31;;;;;;;4.77;2.07;;;16.20;99.90;;;;;;4991762;28;20432;-58
2021/07/07 04:49:57;;;;;;;2.70;1.97;;;16.20;99.90;;;;;;4998333;28;20823;-57
2021/07/07 04:52:22;;;;;;;3.03;1.80;;;16.20;99.90;;;;;;4996978;28;20286;-59
2021/07/07 04:54:48;;;;;;;2.03;1.70;;;16.20;99.90;;;;;;5001838;28;20187;-59
2021/07/07 04:57:14;;;;;;;2.03;1.80;;;16.20;99.90;;;;;;5002437;28;20208;-58
2021/07/07 04:59:40;;;;;;;1.80;1.70;;;16.20;99.90;;;;;;5000892;28;20177;-61
2021/07/07 05:02:05;;;;;;;2.40;2.17;;;16.20;99.90;;;;;;5000424;28;20922;-61
2021/07/07 05:04:31;;;;;;;3.07;2.20;;;16.20;99.90;;;;;;5001969;28;20286;-61
2021/07/07 05:06:57;;;;;;;2.17;1.97;;;16.20;99.90;;;;;;5000376;28;20788;-60
2021/07/07 05:09:22;;;;;;;2.60;2.30;;;16.20;99.90;;;;;;5001461;28;20697;-59
2021/07/07 05:11:49;;;;;;;2.60;2.40;;;16.20;99.90;;;;;;4996837;28;20262;-60
2021/07/07 05:14:15;;;;;;;3.33;2.10;;;16.30;99.90;;;;;;5007394;28;20862;-59
2021/07/07 05:16:41;;;;;;;2.30;2.10;;;16.20;99.90;;;;;;4994478;28;20432;-59
2021/07/07 05:19:07;;;;;;;2.87;2.57;;;16.20;99.90;;;;;;5006186;28;20180;-59
2021/07/07 05:21:32;;;;;;;3.97;2.20;;;16.30;99.90;;;;;;5004544;28;20196;-58
2021/07/07 05:23:58;;;;;;;3.40;2.97;;;16.30;99.90;;;;;;5005307;28;20514;-59
2021/07/07 05:26:24;;;;;;;3.53;2.63;;;16.30;99.90;;;;;;5008152;28;20181;-59
2021/07/07 05:28:49;;;;;;;4.23;2.40;;;16.30;99.90;;;;;;5004990;28;20180;-59
2021/07/07 05:31:15;;;;;;;2.53;2.10;;;16.30;99.90;;;;;;5001031;28;20656;-60
2021/07/07 05:33:41;;;;;;;2.43;2.23;;;16.30;99.90;;;;;;5003820;28;20297;-58
2021/07/07 05:36:08;;;;;;;3.30;2.73;;;16.30;99.90;;;;;;5008091;28;20176;-59
2021/07/07 05:38:35;;;;;;;4.57;2.10;;;16.30;99.90;;;;;;5005461;28;20880;-60
2021/07/07 05:41:01;;;;;;;4.03;2.93;;;16.30;99.90;;;;;;5007457;28;20470;-59
2021/07/07 05:43:28;;;;;;;3.37;2.70;;;16.30;99.90;;;;;;5006517;28;20448;-61
2021/07/07 05:45:54;;;;;;;4.17;2.53;;;16.30;99.90;;;;;;5007016;28;20519;-60
2021/07/07 05:48:19;;;;;;;1.40;1.30;;;16.30;99.90;;;;;;5008502;28;21238;-60
2021/07/07 05:50:45;;;;;;;1.43;1.20;;;16.20;99.90;;;;;;5014087;28;20188;-60
2021/07/07 05:53:11;;;;;;;12.13;1.30;;;16.10;99.90;;;;;;5014672;28;20226;-61
2021/07/07 05:55:37;;;;;;;1.80;1.20;;;16.00;99.90;;;;;;5006365;28;20172;-58
2021/07/07 05:58:03;;;;;;;1.53;1.10;;;15.90;99.90;;;;;;5008631;28;20170;-59
2021/07/07 06:00:29;;;;;;;3.33;1.20;;;15.80;99.90;;;;;;5009716;28;21007;-60
2021/07/07 06:02:55;;;;;;;2.83;1.07;;;15.80;99.90;;;;;;4999247;28;20460;-59
2021/07/07 06:05:22;;;;;;;0.90;0.90;;;15.70;99.90;;;;;;5000482;28;20181;-58
2021/07/07 06:07:48;;;;;;;1.30;1.20;;;15.70;99.90;;;;;;5005582;28;20177;-59
2021/07/07 06:10:16;;;;;;;2.10;1.10;;;15.70;99.90;;;;;;5004936;28;20430;-61
2021/07/07 06:12:43;;;;;;;1.40;1.30;;;15.80;99.90;;;;;;5002519;28;21187;-59
2021/07/07 06:15:11;;;;;;;2.57;1.20;;;15.70;99.90;;;;;;5008489;28;20455;-59
2021/07/07 06:17:37;;;;;;;7.60;1.33;;;15.70;99.90;;;;;;5003334;28;20563;-58
2021/07/07 06:20:05;;;;;;;1.57;1.27;;;15.70;99.90;;;;;;5001679;28;21199;-58
2021/07/07 06:22:31;;;;;;;1.33;1.27;;;15.70;99.90;;;;;;5000324;28;20199;-62
2021/07/07 06:24:59;;;;;;;4.40;1.30;;;15.70;99.90;;;;;;5002516;28;20442;-60
2021/07/07 06:27:25;;;;;;;1.23;1.13;;;15.80;99.90;;;;;;5006868;28;20416;-60
2021/07/07 06:29:50;;;;;;;4.90;1.30;;;15.80;99.90;;;;;;5001348;28;20428;-61
2021/07/07 06:32:18;;;;;;;1.77;1.40;;;15.80;99.90;;;;;;5004744;28;20291;-59
2021/07/07 06:34:44;;;;;;;1.90;1.00;;;15.80;99.90;;;;;;4995674;28;20181;-59
2021/07/07 06:37:10;;;;;;;2.50;1.10;;;15.80;99.90;;;;;;5004195;28;20434;-59
2021/07/07 06:39:36;;;;;;;1.23;1.10;;;15.70;99.90;;;;;;5010033;28;20419;-58
2021/07/07 06:42:04;;;;;;;1.23;1.13;;;15.70;99.90;;;;;;5004402;28;20470;-59
2021/07/07 06:44:31;;;;;;;1.20;1.10;;;15.70;99.90;;;;;;5009965;28;20820;-55
2021/07/07 06:46:57;;;;;;;1.27;1.17;;;15.80;99.90;;;;;;4998466;28;20427;-57
2021/07/07 06:49:23;;;;;;;2.17;1.50;;;15.80;99.90;;;;;;5008342;28;20431;-55
2021/07/07 06:51:49;;;;;;;0.93;0.93;;;15.90;99.90;;;;;;5009729;28;20672;-55
2021/07/07 06:54:16;;;;;;;1.77;1.67;;;15.90;99.90;;;;;;5009205;28;20185;-55
2021/07/07 06:56:41;;;;;;;1.50;1.40;;;16.00;99.90;;;;;;5008709;28;20423;-60
2021/07/07 06:59:07;;;;;;;5.30;1.50;;;16.00;99.90;;;;;;5001611;28;20428;-59
2021/07/07 07:01:33;;;;;;;1.60;1.50;;;16.10;99.90;;;;;;5007032;28;20208;-59
2021/07/07 07:04:00;;;;;;;2.00;1.40;;;16.10;99.90;;;;;;4998096;28;20172;-61
2021/07/07 07:06:28;;;;;;;2.80;1.30;;;16.10;99.90;;;;;;4997029;28;20432;-60
2021/07/07 07:08:53;;;;;;;1.70;1.60;;;16.10;99.90;;;;;;5004493;28;20497;-60
2021/07/07 07:11:19;;;;;;;1.90;1.07;;;16.10;99.90;;;;;;5020333;28;20473;-60
2021/07/07 07:13:45;;;;;;;1.90;1.80;;;16.10;99.90;;;;;;5002873;28;20693;-60
2021/07/07 07:16:12;;;;;;;1.50;1.40;;;16.10;99.90;;;;;;5003323;28;20659;-60
2021/07/07 07:18:38;;;;;;;1.23;1.13;;;16.10;99.90;;;;;;5006217;28;20501;-59
2021/07/07 07:21:03;;;;;;;2.00;1.10;;;16.10;99.90;;;;;;5005917;28;20968;-59
2021/07/07 07:23:29;;;;;;;1.77;1.47;;;16.10;99.90;;;;;;4998167;28;20395;-59
2021/07/07 07:25:55;;;;;;;5.90;1.43;;;16.10;99.90;;;;;;5001632;28;20189;-60
2021/07/07 07:28:20;;;;;;;1.27;1.17;;;16.00;99.90;;;;;;5006947;28;20231;-58
2021/07/07 07:30:46;;;;;;;3.37;1.40;;;16.00;99.90;;;;;;5006534;28;20195;-59
2021/07/07 07:33:12;;;;;;;4.40;1.30;;;16.00;99.90;;;;;;5008105;28;20215;-58
2021/07/07 07:35:38;;;;;;;1.87;1.57;;;16.00;99.90;;;;;;5008730;28;20215;-59
2021/07/07 07:38:07;;;;;;;3.67;1.50;;;16.00;99.90;;;;;;5009093;28;20189;-59
2021/07/07 07:40:45;;;;;;;4.57;1.83;;;16.00;99.90;;;;;;5002634;28;20870;-59
2021/07/07 07:43:11;;;;;;;3.67;1.40;;;16.00;99.90;;;;;;5007699;28;20498;-59
2021/07/07 07:45:38;;;;;;;3.70;1.90;;;16.00;99.90;;;;;;5007809;28;20431;-59
2021/07/07 07:48:05;;;;;;;3.43;1.60;;;16.00;99.90;;;;;;4998394;28;20436;-58
2021/07/07 07:50:32;;;;;;;3.20;1.50;;;16.10;99.90;;;;;;5002667;28;20442;-54
2021/07/07 07:52:58;;;;;;;5.40;1.80;;;16.10;99.90;;;;;;5001888;28;20464;-55
2021/07/07 07:55:24;;;;;;;2.60;1.90;;;16.10;99.90;;;;;;5004248;28;20514;-53
2021/07/07 07:57:49;;;;;;;3.83;2.27;;;16.20;99.90;;;;;;5001318;28;20447;-57
2021/07/07 08:00:23;;;;;;;2.00;1.73;;;16.20;99.90;;;;;;5002065;28;20200;-59
2021/07/07 08:02:49;;;;;;;2.57;2.10;;;16.30;99.90;;;;;;5000642;28;20807;-60
2021/07/07 08:05:15;;;;;;;1.77;1.67;;;16.30;99.90;;;;;;5002472;28;20428;-58
2021/07/07 08:07:42;;;;;;;1.50;1.40;;;16.30;99.90;;;;;;4999266;28;20558;-58
2021/07/07 08:10:12;;;;;;;2.10;1.80;;;16.30;99.90;;;;;;5002127;28;20434;-59
2021/07/07 08:12:38;;;;;;;1.80;1.57;;;16.30;99.90;;;;;;4999398;28;20455;-60
2021/07/07 08:15:05;;;;;;;1.57;1.47;;;16.40;99.90;;;;;;4997595;28;20493;-59
2021/07/07 08:17:31;;;;;;;2.73;1.83;;;16.40;99.90;;;;;;5001518;28;20466;-59
2021/07/07 08:19:57;;;;;;;1.80;1.70;;;16.50;99.90;;;;;;5001134;28;20487;-60
2021/07/07 08:22:22;;;;;;;3.00;2.17;;;16.60;99.90;;;;;;5005324;28;20648;-61
2021/07/07 08:24:48;;;;;;;1.90;1.80;;;16.70;99.90;;;;;;4997210;28;20680;-60
2021/07/07 08:27:14;;;;;;;2.80;2.17;;;16.80;99.90;;;;;;5006994;28;20177;-60
2021/07/07 08:29:39;;;;;;;2.77;2.30;;;16.80;99.90;;;;;;5003920;28;20180;-59
2021/07/07 08:32:06;;;;;;;2.83;2.20;;;16.80;99.90;;;;;;5004948;28;20212;-60
2021/07/07 08:34:33;;;;;;;2.53;1.77;;;16.80;99.90;;;;;;5004957;28;20187;-59
2021/07/07 08:36:59;;;;;;;2.17;1.90;;;16.80;99.90;;;;;;5001573;28;20427;-59
2021/07/07 08:39:26;;;;;;;2.10;1.30;;;16.80;99.90;;;;;;5001994;28;20779;-59
2021/07/07 08:41:52;;;;;;;1.90;1.53;;;16.80;99.90;;;;;;5005339;28;20278;-59
2021/07/07 08:44:17;;;;;;;1.43;1.33;;;16.80;99.90;;;;;;5007766;28;20784;-59
2021/07/07 08:46:43;;;;;;;1.70;1.60;;;16.80;99.90;;;;;;5009865;28;20426;-60
2021/07/07 08:49:09;;;;;;;2.27;1.20;;;16.80;99.90;;;;;;5007732;28;20677;-58
2021/07/07 08:51:40;;;;;;;4.80;1.30;;;16.80;99.90;;;;;;5005761;28;20265;-59
2021/07/07 08:54:10;;;;;;;2.23;1.20;;;16.80;99.90;;;;;;4992324;28;20532;-60
2021/07/07 08:56:43;;;;;;;2.90;1.93;;;16.80;99.90;;;;;;5004937;28;20423;-61
2021/07/07 08:59:10;;;;;;;1.40;1.30;;;16.70;99.90;;;;;;5005822;28;20427;-60
2021/07/07 09:02:07;;;;;;;2.40;1.80;;;16.70;99.90;;;;;;5002852;28;20459;-60
2021/07/07 09:04:42;;;;;;;3.20;1.33;;;16.70;99.90;;;;;;5001945;28;22689;-58
2021/07/07 09:07:10;;;;;;;1.77;1.60;;;16.70;99.90;;;;;;5006326;28;20407;-59
2021/07/07 09:09:45;;;;;;;1.43;1.30;;;16.70;99.90;;;;;;5003149;28;20427;-60
2021/07/07 09:12:25;;;;;;;1.63;1.20;;;16.80;99.90;;;;;;5001368;28;20461;-60
2021/07/07 09:15:13;;;;;;;5.20;1.90;;;16.90;99.90;;;;;;5001099;28;20481;-61
2021/07/07 09:17:44;;;;;;;2.10;1.57;;;16.90;99.90;;;;;;5003823;28;20419;-61
2021/07/07 09:20:26;;;;;;;1.53;1.37;;;17.00;99.90;;;;;;5000797;28;20513;-61
2021/07/07 09:23:12;;;;;;;1.90;1.70;;;17.10;99.90;;;;;;5002509;28;20824;-60
2021/07/07 09:25:48;;;;;;;1.80;1.53;;;17.30;99.90;;;;;;5008791;28;20486;-60
2021/07/07 09:28:35;;;;;;;1.53;1.40;;;17.40;99.90;;;;;;4998719;28;20420;-61
2021/07/07 09:31:05;;;;;;;1.47;1.37;;;17.50;99.90;;;;;;5000441;28;21311;-61
2021/07/07 09:33:42;;;;;;;1.83;1.40;;;17.50;99.90;;;;;;4998550;28;20439;-61
2021/07/07 09:36:25;;;;;;;1.90;1.40;;;17.50;99.90;;;;;;5003190;28;20517;-61
2021/07/07 09:38:53;;;;;;;1.37;1.10;;;17.50;99.90;;;;;;5005966;28;20449;-60
2021/07/07 09:41:19;;;;;;;2.30;1.60;;;17.60;99.90;;;;;;4999625;28;20451;-60
2021/07/07 09:43:47;;;;;;;1.20;1.10;;;17.60;99.90;;;;;;5001627;28;20451;-61
2021/07/07 09:46:13;;;;;;;1.43;1.33;;;17.70;99.90;;;;;;5000891;28;20458;-61
2021/07/07 09:48:38;;;;;;;5.03;1.70;;;17.70;99.90;;;;;;5000105;28;20458;-61
2021/07/07 09:51:04;;;;;;;1.23;1.20;;;17.60;99.90;;;;;;5004253;28;20180;-62
2021/07/07 09:53:30;;;;;;;1.27;1.17;;;17.60;99.90;;;;;;5004444;28;20204;-62
2021/07/07 09:55:56;;;;;;;2.13;1.50;;;17.60;99.90;;;;;;5005876;28;20415;-60
2021/07/07 09:58:22;;;;;;;3.40;1.50;;;17.50;99.90;;;;;;4997940;28;20245;-61
2021/07/07 10:00:48;;;;;;;2.43;1.20;;;17.50;99.90;;;;;;5005264;28;20495;-61
2021/07/07 10:03:15;;;;;;;2.60;1.40;;;17.60;99.90;;;;;;5002153;28;20475;-58
2021/07/07 10:05:41;;;;;;;1.47;1.30;;;17.60;99.90;;;;;;4997915;28;20758;-60
2021/07/07 10:08:08;;;;;;;1.37;1.27;;;17.50;99.90;;;;;;5000069;28;20519;-60
2021/07/07 10:10:36;;;;;;;1.30;1.20;;;17.50;99.90;;;;;;5001022;28;20425;-59
2021/07/07 10:13:02;;;;;;;1.23;1.17;;;17.40;99.90;;;;;;5005003;28;20538;-58
2021/07/07 10:15:28;;;;;;;2.50;1.73;;;17.40;99.90;;;;;;5008187;28;20423;-59
2021/07/07 10:17:54;;;;;;;1.30;1.20;;;17.30;99.90;;;;;;5004300;28;20439;-59
2021/07/07 10:20:20;;;;;;;2.10;1.90;;;17.30;99.90;;;;;;5010318;28;20368;-57
2021/07/07 10:22:47;;;;;;;2.13;1.50;;;17.30;99.90;;;;;;5010488;28;20673;-57
2021/07/07 10:25:18;;;;;;;6.13;1.70;;;17.30;99.90;;;;;;5010396;28;20838;-58
2021/07/07 10:27:45;;;;;;;1.80;1.50;;;17.40;99.90;;;;;;5003425;28;20428;-58
2021/07/07 10:30:12;;;;;;;1.97;1.83;;;17.40;99.90;;;;;;5008028;28;21006;-58
2021/07/07 10:32:37;;;;;;;5.90;1.80;;;17.40;99.90;;;;;;5005120;28;20478;-58
2021/07/07 10:35:12;;;;;;;2.57;1.70;;;17.50;99.90;;;;;;5003830;28;20435;-59
2021/07/07 10:37:39;;;;;;;1.80;1.67;;;17.60;99.90;;;;;;5007397;28;20180;-60
2021/07/07 10:40:24;;;;;;;1.83;1.40;;;17.60;99.90;;;;;;5010760;28;22563;-60
2021/07/07 10:42:50;;;;;;;1.80;1.70;;;17.60;99.90;;;;;;5011111;28;20447;-58
2021/07/07 10:45:42;;;;;;;1.70;1.60;;;17.70;99.90;;;;;;5007643;28;20497;-58
2021/07/07 10:48:28;;;;;;;1.80;1.70;;;17.70;99.90;;;;;;5012079;28;20422;-58
2021/07/07 10:50:58;;;;;;;1.83;1.73;;;17.80;99.90;;;;;;5011431;28;20895;-58
2021/07/07 10:53:37;;;;;;;2.53;2.10;;;17.80;99.90;;;;;;5011046;28;20447;-58
2021/07/07 10:56:05;;;;;;;1.60;1.50;;;17.70;99.90;;;;;;5012266;28;20423;-58
2021/07/07 10:58:35;;;;;;;4.00;1.60;;;17.70;99.90;;;;;;5012787;28;20411;-58
2021/07/07 11:01:21;;;;;;;3.43;2.13;;;17.60;99.90;;;;;;5012050;28;21035;-59
2021/07/07 11:03:59;;;;;;;3.40;2.00;;;17.60;99.90;;;;;;4999961;28;20491;-59
2021/07/07 11:06:30;;;;;;;1.57;1.47;;;17.60;99.90;;;;;;5007756;28;20430;-55
2021/07/07 11:09:17;;;;;;;1.60;1.50;;;17.60;99.90;;;;;;5011566;28;20427;-59
2021/07/07 11:11:45;;;;;;;1.73;1.53;;;17.70;99.90;;;;;;5005094;28;20481;-59
2021/07/07 11:14:11;;;;;;;2.40;1.87;;;17.70;99.90;;;;;;5008094;28;20423;-59
2021/07/07 11:16:51;;;;;;;4.03;2.10;;;17.70;99.90;;;;;;5007094;28;20431;-55
2021/07/07 11:19:38;;;;;;;3.37;2.60;;;17.70;99.90;;;;;;5005485;28;20180;-56
2021/07/07 11:22:04;;;;;;;2.40;2.00;;;17.70;99.90;;;;;;5009606;28;20459;-55
2021/07/07 11:24:31;;;;;;;3.00;1.70;;;17.70;99.90;;;;;;5010954;28;20420;-59
2021/07/07 11:26:56;;;;;;;2.60;2.00;;;17.70;99.90;;;;;;5007342;28;20451;-57
2021/07/07 11:29:22;;;;;;;1.73;1.63;;;17.70;99.90;;;;;;5006374;28;21038;-59
2021/07/07 11:31:48;;;;;;;1.57;1.47;;;17.60;99.90;;;;;;5003438;28;20684;-58
2021/07/07 11:34:14;;;;;;;1.63;1.27;;;17.60;99.90;;;;;;5002897;28;20188;-58
2021/07/07 11:36:40;;;;;;;11.07;1.70;;;17.60;99.90;;;;;;5007278;28;20173;-58
2021/07/07 11:39:07;;;;;;;1.63;1.53;;;17.50;99.90;;;;;;5005866;28;20671;-59
2021/07/07 11:41:33;;;;;;;3.43;1.53;;;17.50;99.90;;;;;;4995259;28;20626;-57
2021/07/07 11:43:59;;;;;;;2.03;1.87;;;17.50;99.90;;;;;;5006626;28;20419;-58
2021/07/07 11:46:30;;;;;;;1.80;1.50;;;17.50;99.90;;;;;;5009213;28;20424;-59
2021/07/07 11:49:07;;;;;;;2.13;1.30;;;17.60;99.90;;;;;;5004508;28;20431;-60
2021/07/07 11:51:36;;;;;;;1.50;1.40;;;17.60;99.90;;;;;;4998621;28;20486;-60
2021/07/07 11:54:01;;;;;;;1.97;1.77;;;17.50;99.90;;;;;;5005660;28;20443;-60
2021/07/07 11:56:27;;;;;;;2.47;1.30;;;17.50;99.90;;;;;;5010019;28;20518;-61
2021/07/07 11:58:57;;;;;;;1.33;1.23;;;17.50;99.90;;;;;;5009669;28;20185;-60
2021/07/07 12:01:27;;;;;;;1.73;1.63;;;17.50;99.90;;;;;;5004136;28;20299;-59
2021/07/07 12:04:06;;;;;;;5.33;1.70;;;17.50;99.90;;;;;;5009265;28;20457;-59
2021/07/07 12:06:38;;;;;;;2.00;1.80;;;17.60;99.90;;;;;;5002978;28;20435;-61
2021/07/07 12:09:22;;;;;;;2.07;1.40;;;17.70;99.90;;;;;;5007543;28;20428;-59
2021/07/07 12:11:55;;;;;;;1.43;1.33;;;17.80;99.90;;;;;;5008987;28;20486;-60
2021/07/07 12:14:25;;;;;;;1.93;1.60;;;17.90;99.90;;;;;;5011717;28;20428;-60
2021/07/07 12:16:51;;;;;;;2.17;1.97;;;17.90;99.90;;;;;;5007629;28;20441;-60
2021/07/07 12:19:18;;;;;;;1.97;1.77;;;18.00;99.90;;;;;;5008964;28;20435;-60
2021/07/07 12:21:52;;;;;;;1.50;1.40;;;18.00;99.90;;;;;;5006324;28;20466;-60
2021/07/07 12:24:26;;;;;;;1.40;1.30;;;18.10;99.90;;;;;;5001815;28;20470;-60
2021/07/07 12:27:04;;;;;;;2.30;2.10;;;18.10;99.90;;;;;;5005147;28;20441;-60
2021/07/07 12:29:31;;;;;;;3.17;1.60;;;18.10;99.90;;;;;;5009739;28;20434;-60
2021/07/07 12:32:03;;;;;;;1.77;1.67;;;18.10;99.90;;;;;;5011919;28;20458;-60
2021/07/07 12:34:51;;;;;;;1.60;1.47;;;18.00;99.90;;;;;;5001661;28;22135;-60
2021/07/07 12:37:19;;;;;;;4.50;1.80;;;18.00;99.90;;;;;;4998576;28;20569;-59
2021/07/07 12:39:53;;;;;;;2.03;1.30;;;18.00;99.90;;;;;;5008247;28;20526;-62
2021/07/07 12:42:29;;;;;;;4.90;1.50;;;18.00;99.90;;;;;;5003852;28;20461;-59
2021/07/07 12:45:10;;;;;;;1.40;1.30;;;18.00;99.90;;;;;;4999173;28;20431;-59
2021/07/07 12:47:36;;;;;;;1.40;1.30;;;18.20;99.90;;;;;;5008560;28;20491;-60
2021/07/07 12:50:12;;;;;;;1.53;1.43;;;18.20;99.90;;;;;;5002517;28;20468;-59
2021/07/07 12:52:43;;;;;;;2.73;1.93;;;18.30;99.90;;;;;;5006202;28;20239;-59